Aérodrome :
LOGIN :

S'inscrire | Disclaimer

   EN    FR    IT 

 










Légende :    VFR   VFR Marginal   IFR   IFR Intensif   IFR Très Intensif
Visi : 
Plafond : 
>= 8 km
>= 3000ft
5 à 8 km
1000 à 3000 ft
1500m à 5 km
500 à 1000 ft
800 à 1500m
200 à 500 ft
< 800m
< 200 ft
Symboles :   Orages  Brouillard  Fortes neiges  Fortes précipitations  Vent > 20 kt
SIGMETs :   Divers  Orages  Givrage  Turbulence  Onde Orograph.  Cendres Volcan.







- Altitude de l'aérodrome : 142 ft
- Code IATA : ALC


LEAL - Alicante

DERNIER METAR :
  • 280800Z 03008KT 350V050 9999 FEW025 BKN065 13/07 Q1016 NOSIG

METARs EXPIRÉS :
  • 280730Z 03008KT 9999 FEW025 BKN065 12/08 Q1016 NOSIG
  • 280700Z 02006KT 350V060 9999 SCT025 BKN060 12/08 Q1016 NOSIG
  • 280630Z 03006KT 010V070 9999 FEW020 BKN060 12/07 Q1016 NOSIG
  • 280600Z 05006KT 010V100 9999 FEW027 BKN060 12/07 Q1016 NOSIG
  • 280530Z 03007KT 360V060 9999 FEW027 BKN060 11/08 Q1015 NOSIG

TAF TAF LEAL
Valide du 28 à 06h jusqu'au 29 à 06h UTC


280500Z 2806/2906 07012KT 9999 FEW020 TX19/2812Z TN12/2806Z
PROB30
TEMPO 2806/2818 SHRA FEW025TCU BKN035
Pas de NOTAMs connus pour ce terrain.



MET'MAP, la Météo Aéronautique d'un coup d'oeil ! - Copyright ORBIFLY Décembre 2007 - Disclaimer

ORBIFLY MET'MAP TEAM :

Programmation & Développement : Alexandra Zaïnal
Conception & Développement : Baudouin d'Aumeries
Co-Programmation & Développement : Marc-Olivier Méhu
Soutien technique & logistique : Manuel Goepfert

Contact : metmap@orbifly.com




SOURCES & CREDITS :

   NOAA